sensor_id;sensor_type;location;lat;lon;timestamp;P1;durP1;ratioP1;P2;durP2;ratioP2
17171;SDS011;8701;50.150;8.756;2022-08-19T00:03:10;14.80;;;11.97;;
17171;SDS011;8701;50.150;8.756;2022-08-19T00:07:13;15.27;;;13.60;;
17171;SDS011;8701;50.150;8.756;2022-08-19T00:11:15;17.03;;;13.10;;
17171;SDS011;8701;50.150;8.756;2022-08-19T00:15:19;15.23;;;12.63;;
17171;SDS011;8701;50.150;8.756;2022-08-19T00:19:25;17.90;;;13.73;;
17171;SDS011;8701;50.150;8.756;2022-08-19T00:23:29;15.37;;;12.80;;
17171;SDS011;8701;50.150;8.756;2022-08-19T00:27:34;14.70;;;12.10;;
17171;SDS011;8701;50.150;8.756;2022-08-19T00:31:37;17.77;;;13.60;;
17171;SDS011;8701;50.150;8.756;2022-08-19T00:35:40;16.60;;;12.80;;
17171;SDS011;8701;50.150;8.756;2022-08-19T00:39:43;16.17;;;13.40;;
17171;SDS011;8701;50.150;8.756;2022-08-19T00:43:55;19.90;;;13.40;;
17171;SDS011;8701;50.150;8.756;2022-08-19T00:47:59;16.30;;;13.27;;
17171;SDS011;8701;50.150;8.756;2022-08-19T00:52:06;18.47;;;13.40;;
17171;SDS011;8701;50.150;8.756;2022-08-19T00:56:12;16.23;;;13.23;;
17171;SDS011;8701;50.150;8.756;2022-08-19T01:00:17;17.10;;;13.30;;
17171;SDS011;8701;50.150;8.756;2022-08-19T01:04:23;16.43;;;12.83;;
17171;SDS011;8701;50.150;8.756;2022-08-19T01:08:26;18.60;;;13.03;;
17171;SDS011;8701;50.150;8.756;2022-08-19T01:12:29;18.73;;;12.70;;
17171;SDS011;8701;50.150;8.756;2022-08-19T01:16:32;14.57;;;12.00;;
17171;SDS011;8701;50.150;8.756;2022-08-19T01:20:36;14.40;;;11.83;;
17171;SDS011;8701;50.150;8.756;2022-08-19T01:24:40;31.20;;;12.13;;
17171;SDS011;8701;50.150;8.756;2022-08-19T01:28:43;28.07;;;13.10;;
17171;SDS011;8701;50.150;8.756;2022-08-19T01:32:48;26.97;;;13.73;;
17171;SDS011;8701;50.150;8.756;2022-08-19T01:36:50;18.67;;;12.40;;
17171;SDS011;8701;50.150;8.756;2022-08-19T01:40:54;20.10;;;12.00;;
17171;SDS011;8701;50.150;8.756;2022-08-19T01:44:56;23.83;;;11.97;;
17171;SDS011;8701;50.150;8.756;2022-08-19T01:48:59;15.23;;;10.77;;
17171;SDS011;8701;50.150;8.756;2022-08-19T01:53:02;14.20;;;10.50;;
17171;SDS011;8701;50.150;8.756;2022-08-19T01:57:10;15.47;;;11.40;;
17171;SDS011;8701;50.150;8.756;2022-08-19T02:01:14;13.63;;;10.93;;
17171;SDS011;8701;50.150;8.756;2022-08-19T02:05:17;12.87;;;10.43;;
17171;SDS011;8701;50.150;8.756;2022-08-19T02:09:21;13.87;;;11.33;;
17171;SDS011;8701;50.150;8.756;2022-08-19T02:13:26;14.10;;;11.40;;
17171;SDS011;8701;50.150;8.756;2022-08-19T02:17:28;12.63;;;10.43;;
17171;SDS011;8701;50.150;8.756;2022-08-19T02:21:32;12.13;;;10.17;;
17171;SDS011;8701;50.150;8.756;2022-08-19T02:25:35;12.33;;;9.27;;
17171;SDS011;8701;50.150;8.756;2022-08-19T02:29:40;13.10;;;9.53;;
17171;SDS011;8701;50.150;8.756;2022-08-19T02:33:43;12.73;;;10.00;;
17171;SDS011;8701;50.150;8.756;2022-08-19T02:37:46;11.43;;;9.77;;
17171;SDS011;8701;50.150;8.756;2022-08-19T02:42:07;13.47;;;10.67;;
17171;SDS011;8701;50.150;8.756;2022-08-19T02:46:15;14.43;;;10.40;;
17171;SDS011;8701;50.150;8.756;2022-08-19T02:50:21;14.90;;;10.00;;
17171;SDS011;8701;50.150;8.756;2022-08-19T02:54:24;15.60;;;9.43;;
17171;SDS011;8701;50.150;8.756;2022-08-19T02:58:26;11.93;;;8.80;;
17171;SDS011;8701;50.150;8.756;2022-08-19T03:02:30;13.30;;;9.43;;
17171;SDS011;8701;50.150;8.756;2022-08-19T03:06:35;11.43;;;8.50;;
17171;SDS011;8701;50.150;8.756;2022-08-19T03:10:42;10.70;;;8.07;;
17171;SDS011;8701;50.150;8.756;2022-08-19T03:14:45;11.00;;;8.17;;
17171;SDS011;8701;50.150;8.756;2022-08-19T03:18:49;11.80;;;8.80;;
17171;SDS011;8701;50.150;8.756;2022-08-19T03:22:51;11.03;;;8.83;;
17171;SDS011;8701;50.150;8.756;2022-08-19T03:26:54;11.47;;;7.57;;
17171;SDS011;8701;50.150;8.756;2022-08-19T03:31:02;12.43;;;9.00;;
17171;SDS011;8701;50.150;8.756;2022-08-19T03:35:08;10.90;;;7.77;;
17171;SDS011;8701;50.150;8.756;2022-08-19T03:39:10;10.60;;;8.20;;
17171;SDS011;8701;50.150;8.756;2022-08-19T03:43:13;13.20;;;8.80;;
17171;SDS011;8701;50.150;8.756;2022-08-19T03:47:18;11.43;;;7.83;;
17171;SDS011;8701;50.150;8.756;2022-08-19T03:51:23;11.73;;;8.30;;
17171;SDS011;8701;50.150;8.756;2022-08-19T03:55:26;10.20;;;8.40;;
17171;SDS011;8701;50.150;8.756;2022-08-19T03:59:29;14.10;;;7.80;;
17171;SDS011;8701;50.150;8.756;2022-08-19T04:03:33;15.07;;;9.60;;
17171;SDS011;8701;50.150;8.756;2022-08-19T04:07:38;12.10;;;8.10;;
17171;SDS011;8701;50.150;8.756;2022-08-19T04:11:42;11.20;;;8.57;;
17171;SDS011;8701;50.150;8.756;2022-08-19T04:15:47;11.90;;;8.37;;
17171;SDS011;8701;50.150;8.756;2022-08-19T04:19:50;10.20;;;8.00;;
17171;SDS011;8701;50.150;8.756;2022-08-19T04:23:53;13.43;;;9.07;;
17171;SDS011;8701;50.150;8.756;2022-08-19T04:27:57;12.77;;;8.63;;
17171;SDS011;8701;50.150;8.756;2022-08-19T04:32:00;11.43;;;8.70;;
17171;SDS011;8701;50.150;8.756;2022-08-19T04:36:03;10.93;;;8.50;;
17171;SDS011;8701;50.150;8.756;2022-08-19T04:40:07;12.10;;;8.90;;
17171;SDS011;8701;50.150;8.756;2022-08-19T04:44:29;15.23;;;8.90;;
17171;SDS011;8701;50.150;8.756;2022-08-19T04:48:32;11.30;;;8.97;;
17171;SDS011;8701;50.150;8.756;2022-08-19T04:52:35;10.03;;;9.00;;
17171;SDS011;8701;50.150;8.756;2022-08-19T04:56:38;14.90;;;9.30;;
17171;SDS011;8701;50.150;8.756;2022-08-19T05:00:41;11.07;;;9.00;;
17171;SDS011;8701;50.150;8.756;2022-08-19T05:04:44;12.30;;;9.20;;
17171;SDS011;8701;50.150;8.756;2022-08-19T05:08:46;17.47;;;8.87;;
17171;SDS011;8701;50.150;8.756;2022-08-19T05:12:50;12.33;;;9.00;;
17171;SDS011;8701;50.150;8.756;2022-08-19T05:16:53;10.47;;;9.37;;
17171;SDS011;8701;50.150;8.756;2022-08-19T05:20:57;12.77;;;8.90;;
17171;SDS011;8701;50.150;8.756;2022-08-19T05:25:17;14.60;;;9.90;;
17171;SDS011;8701;50.150;8.756;2022-08-19T05:29:23;13.33;;;9.33;;
17171;SDS011;8701;50.150;8.756;2022-08-19T05:33:27;13.50;;;9.93;;
17171;SDS011;8701;50.150;8.756;2022-08-19T05:37:30;12.77;;;9.17;;
17171;SDS011;8701;50.150;8.756;2022-08-19T05:41:33;12.20;;;10.00;;
17171;SDS011;8701;50.150;8.756;2022-08-19T05:45:39;15.40;;;9.63;;
17171;SDS011;8701;50.150;8.756;2022-08-19T05:49:43;11.00;;;9.63;;
17171;SDS011;8701;50.150;8.756;2022-08-19T05:53:45;11.83;;;9.47;;
17171;SDS011;8701;50.150;8.756;2022-08-19T05:57:48;10.93;;;9.67;;
17171;SDS011;8701;50.150;8.756;2022-08-19T06:01:52;13.43;;;10.20;;
17171;SDS011;8701;50.150;8.756;2022-08-19T06:05:57;13.47;;;9.13;;
17171;SDS011;8701;50.150;8.756;2022-08-19T06:10:00;13.40;;;9.23;;
17171;SDS011;8701;50.150;8.756;2022-08-19T06:14:05;11.70;;;8.70;;
17171;SDS011;8701;50.150;8.756;2022-08-19T06:18:10;9.37;;;7.83;;
17171;SDS011;8701;50.150;8.756;2022-08-19T06:22:13;9.40;;;8.40;;
17171;SDS011;8701;50.150;8.756;2022-08-19T06:26:16;11.23;;;7.80;;
17171;SDS011;8701;50.150;8.756;2022-08-19T06:30:19;10.57;;;7.90;;
17171;SDS011;8701;50.150;8.756;2022-08-19T06:34:23;12.50;;;8.37;;
17171;SDS011;8701;50.150;8.756;2022-08-19T06:38:27;11.63;;;7.17;;
17171;SDS011;8701;50.150;8.756;2022-08-19T06:42:30;8.23;;;6.90;;
17171;SDS011;8701;50.150;8.756;2022-08-19T06:46:32;9.00;;;7.50;;
17171;SDS011;8701;50.150;8.756;2022-08-19T06:50:36;10.60;;;7.70;;
17171;SDS011;8701;50.150;8.756;2022-08-19T06:54:38;9.40;;;6.97;;
17171;SDS011;8701;50.150;8.756;2022-08-19T06:58:41;9.60;;;7.50;;
17171;SDS011;8701;50.150;8.756;2022-08-19T07:02:43;11.30;;;7.10;;
17171;SDS011;8701;50.150;8.756;2022-08-19T07:06:48;7.93;;;6.40;;
17171;SDS011;8701;50.150;8.756;2022-08-19T07:10:50;6.80;;;6.00;;
17171;SDS011;8701;50.150;8.756;2022-08-19T07:14:53;10.93;;;6.60;;
17171;SDS011;8701;50.150;8.756;2022-08-19T07:18:55;8.70;;;6.87;;
17171;SDS011;8701;50.150;8.756;2022-08-19T07:22:59;8.23;;;6.20;;
17171;SDS011;8701;50.150;8.756;2022-08-19T07:27:03;6.90;;;6.03;;
17171;SDS011;8701;50.150;8.756;2022-08-19T07:31:07;8.97;;;5.30;;
17171;SDS011;8701;50.150;8.756;2022-08-19T07:35:15;8.33;;;5.73;;
17171;SDS011;8701;50.150;8.756;2022-08-19T07:39:24;7.60;;;5.67;;
17171;SDS011;8701;50.150;8.756;2022-08-19T07:43:28;6.83;;;6.13;;
17171;SDS011;8701;50.150;8.756;2022-08-19T07:47:30;5.67;;;5.07;;
17171;SDS011;8701;50.150;8.756;2022-08-19T07:51:33;6.63;;;4.60;;
17171;SDS011;8701;50.150;8.756;2022-08-19T07:55:37;6.87;;;4.07;;
17171;SDS011;8701;50.150;8.756;2022-08-19T07:59:40;4.43;;;3.40;;
17171;SDS011;8701;50.150;8.756;2022-08-19T08:03:42;6.60;;;3.97;;
17171;SDS011;8701;50.150;8.756;2022-08-19T08:08:03;3.90;;;3.60;;
17171;SDS011;8701;50.150;8.756;2022-08-19T08:12:25;3.03;;;2.40;;
17171;SDS011;8701;50.150;8.756;2022-08-19T08:16:33;6.10;;;3.03;;
17171;SDS011;8701;50.150;8.756;2022-08-19T08:20:36;4.13;;;2.67;;
17171;SDS011;8701;50.150;8.756;2022-08-19T08:24:38;2.90;;;2.30;;
17171;SDS011;8701;50.150;8.756;2022-08-19T08:28:42;4.03;;;2.60;;
17171;SDS011;8701;50.150;8.756;2022-08-19T08:32:45;2.40;;;2.17;;
17171;SDS011;8701;50.150;8.756;2022-08-19T08:36:48;3.70;;;2.87;;
17171;SDS011;8701;50.150;8.756;2022-08-19T08:40:53;5.90;;;2.30;;
17171;SDS011;8701;50.150;8.756;2022-08-19T08:45:10;2.77;;;2.57;;
17171;SDS011;8701;50.150;8.756;2022-08-19T08:49:19;2.40;;;2.30;;
17171;SDS011;8701;50.150;8.756;2022-08-19T08:53:28;3.40;;;2.87;;
17171;SDS011;8701;50.150;8.756;2022-08-19T08:57:35;3.47;;;2.60;;
17171;SDS011;8701;50.150;8.756;2022-08-19T09:01:42;3.30;;;3.10;;
17171;SDS011;8701;50.150;8.756;2022-08-19T09:05:48;3.20;;;3.00;;
17171;SDS011;8701;50.150;8.756;2022-08-19T09:10:02;3.07;;;2.87;;
17171;SDS011;8701;50.150;8.756;2022-08-19T09:14:11;3.30;;;3.10;;
17171;SDS011;8701;50.150;8.756;2022-08-19T09:18:21;2.77;;;2.57;;
17171;SDS011;8701;50.150;8.756;2022-08-19T09:22:23;3.73;;;2.93;;
17171;SDS011;8701;50.150;8.756;2022-08-19T09:26:30;3.40;;;3.10;;
17171;SDS011;8701;50.150;8.756;2022-08-19T09:30:34;2.67;;;2.47;;
17171;SDS011;8701;50.150;8.756;2022-08-19T09:34:49;3.13;;;2.83;;
17171;SDS011;8701;50.150;8.756;2022-08-19T09:38:55;4.77;;;2.83;;
17171;SDS011;8701;50.150;8.756;2022-08-19T09:42:58;4.33;;;3.10;;
17171;SDS011;8701;50.150;8.756;2022-08-19T09:47:03;3.30;;;3.07;;
17171;SDS011;8701;50.150;8.756;2022-08-19T09:51:08;4.60;;;2.90;;
17171;SDS011;8701;50.150;8.756;2022-08-19T09:55:15;3.43;;;3.13;;
17171;SDS011;8701;50.150;8.756;2022-08-19T09:59:18;4.13;;;3.70;;
17171;SDS011;8701;50.150;8.756;2022-08-19T10:03:21;5.10;;;3.90;;
17171;SDS011;8701;50.150;8.756;2022-08-19T10:07:25;3.77;;;3.37;;
17171;SDS011;8701;50.150;8.756;2022-08-19T10:11:28;3.10;;;2.87;;
17171;SDS011;8701;50.150;8.756;2022-08-19T10:15:30;5.03;;;2.90;;
17171;SDS011;8701;50.150;8.756;2022-08-19T10:19:32;2.50;;;2.40;;
17171;SDS011;8701;50.150;8.756;2022-08-19T10:23:38;2.10;;;2.00;;
17171;SDS011;8701;50.150;8.756;2022-08-19T10:27:45;2.57;;;2.37;;
17171;SDS011;8701;50.150;8.756;2022-08-19T10:31:48;7.30;;;3.40;;
17171;SDS011;8701;50.150;8.756;2022-08-19T10:35:58;3.60;;;2.63;;
17171;SDS011;8701;50.150;8.756;2022-08-19T10:40:03;4.53;;;2.77;;
17171;SDS011;8701;50.150;8.756;2022-08-19T10:44:08;3.50;;;3.20;;
17171;SDS011;8701;50.150;8.756;2022-08-19T10:48:12;2.70;;;2.30;;
17171;SDS011;8701;50.150;8.756;2022-08-19T10:52:15;2.87;;;2.27;;
17171;SDS011;8701;50.150;8.756;2022-08-19T10:56:36;3.23;;;2.90;;
17171;SDS011;8701;50.150;8.756;2022-08-19T11:00:57;2.67;;;2.47;;
17171;SDS011;8701;50.150;8.756;2022-08-19T11:05:01;4.33;;;3.93;;
17171;SDS011;8701;50.150;8.756;2022-08-19T11:09:04;4.47;;;3.73;;
17171;SDS011;8701;50.150;8.756;2022-08-19T11:13:08;4.63;;;3.60;;
17171;SDS011;8701;50.150;8.756;2022-08-19T11:17:10;3.93;;;3.07;;
17171;SDS011;8701;50.150;8.756;2022-08-19T11:21:16;3.03;;;2.83;;
17171;SDS011;8701;50.150;8.756;2022-08-19T11:25:20;2.90;;;2.70;;
17171;SDS011;8701;50.150;8.756;2022-08-19T11:29:24;2.53;;;2.33;;
17171;SDS011;8701;50.150;8.756;2022-08-19T11:33:28;2.37;;;2.27;;
17171;SDS011;8701;50.150;8.756;2022-08-19T11:37:31;2.87;;;2.77;;
17171;SDS011;8701;50.150;8.756;2022-08-19T11:41:38;3.30;;;3.00;;
17171;SDS011;8701;50.150;8.756;2022-08-19T11:45:42;3.87;;;3.57;;
17171;SDS011;8701;50.150;8.756;2022-08-19T11:49:45;3.67;;;3.47;;
17171;SDS011;8701;50.150;8.756;2022-08-19T11:53:48;4.20;;;3.90;;
17171;SDS011;8701;50.150;8.756;2022-08-19T11:57:51;5.07;;;4.57;;
17171;SDS011;8701;50.150;8.756;2022-08-19T12:01:55;5.67;;;5.07;;
17171;SDS011;8701;50.150;8.756;2022-08-19T12:05:58;10.07;;;5.40;;
17171;SDS011;8701;50.150;8.756;2022-08-19T12:10:04;6.77;;;5.57;;
17171;SDS011;8701;50.150;8.756;2022-08-19T12:14:09;3.70;;;3.50;;
17171;SDS011;8701;50.150;8.756;2022-08-19T12:18:15;4.40;;;3.70;;
17171;SDS011;8701;50.150;8.756;2022-08-19T12:22:18;4.30;;;4.00;;
17171;SDS011;8701;50.150;8.756;2022-08-19T12:26:22;8.17;;;4.90;;
17171;SDS011;8701;50.150;8.756;2022-08-19T12:30:25;4.60;;;4.20;;
17171;SDS011;8701;50.150;8.756;2022-08-19T12:34:29;3.63;;;3.43;;
17171;SDS011;8701;50.150;8.756;2022-08-19T12:38:33;3.93;;;3.73;;
17171;SDS011;8701;50.150;8.756;2022-08-19T12:42:36;4.93;;;4.60;;
17171;SDS011;8701;50.150;8.756;2022-08-19T12:46:38;5.77;;;4.47;;
17171;SDS011;8701;50.150;8.756;2022-08-19T12:50:42;5.63;;;5.23;;
17171;SDS011;8701;50.150;8.756;2022-08-19T12:54:47;4.40;;;4.10;;
17171;SDS011;8701;50.150;8.756;2022-08-19T12:58:50;5.10;;;4.73;;
17171;SDS011;8701;50.150;8.756;2022-08-19T13:02:52;5.13;;;4.40;;
17171;SDS011;8701;50.150;8.756;2022-08-19T13:06:57;6.23;;;5.63;;
17171;SDS011;8701;50.150;8.756;2022-08-19T13:11:10;4.87;;;4.57;;
17171;SDS011;8701;50.150;8.756;2022-08-19T13:15:17;4.60;;;4.30;;
17171;SDS011;8701;50.150;8.756;2022-08-19T13:19:21;4.40;;;4.10;;
17171;SDS011;8701;50.150;8.756;2022-08-19T13:23:26;5.27;;;4.87;;
17171;SDS011;8701;50.150;8.756;2022-08-19T13:27:29;4.97;;;4.60;;
17171;SDS011;8701;50.150;8.756;2022-08-19T13:31:32;4.10;;;3.80;;
17171;SDS011;8701;50.150;8.756;2022-08-19T13:35:56;3.93;;;3.73;;
17171;SDS011;8701;50.150;8.756;2022-08-19T13:40:02;6.63;;;5.00;;
17171;SDS011;8701;50.150;8.756;2022-08-19T13:44:06;5.40;;;4.73;;
17171;SDS011;8701;50.150;8.756;2022-08-19T13:48:08;5.53;;;5.03;;
17171;SDS011;8701;50.150;8.756;2022-08-19T13:52:11;4.47;;;4.10;;
17171;SDS011;8701;50.150;8.756;2022-08-19T13:56:15;5.10;;;4.60;;
17171;SDS011;8701;50.150;8.756;2022-08-19T14:00:20;5.60;;;4.90;;
17171;SDS011;8701;50.150;8.756;2022-08-19T14:04:25;5.30;;;4.50;;
17171;SDS011;8701;50.150;8.756;2022-08-19T14:08:28;4.57;;;4.27;;
17171;SDS011;8701;50.150;8.756;2022-08-19T14:12:34;7.23;;;4.50;;
17171;SDS011;8701;50.150;8.756;2022-08-19T14:16:37;5.40;;;4.43;;
17171;SDS011;8701;50.150;8.756;2022-08-19T14:20:40;5.93;;;3.80;;
17171;SDS011;8701;50.150;8.756;2022-08-19T14:24:42;4.57;;;4.17;;
17171;SDS011;8701;50.150;8.756;2022-08-19T14:28:47;5.07;;;3.50;;
17171;SDS011;8701;50.150;8.756;2022-08-19T14:32:49;7.03;;;3.50;;
17171;SDS011;8701;50.150;8.756;2022-08-19T14:36:52;4.63;;;4.23;;
17171;SDS011;8701;50.150;8.756;2022-08-19T14:40:55;3.97;;;3.67;;
17171;SDS011;8701;50.150;8.756;2022-08-19T14:44:59;3.63;;;3.33;;
17171;SDS011;8701;50.150;8.756;2022-08-19T14:49:02;4.10;;;3.80;;
17171;SDS011;8701;50.150;8.756;2022-08-19T14:53:06;4.57;;;3.20;;
17171;SDS011;8701;50.150;8.756;2022-08-19T14:57:11;4.20;;;3.80;;
17171;SDS011;8701;50.150;8.756;2022-08-19T15:01:16;3.97;;;3.70;;
17171;SDS011;8701;50.150;8.756;2022-08-19T15:05:21;3.93;;;3.63;;
17171;SDS011;8701;50.150;8.756;2022-08-19T15:09:23;3.60;;;3.30;;
17171;SDS011;8701;50.150;8.756;2022-08-19T15:13:26;3.80;;;3.50;;
17171;SDS011;8701;50.150;8.756;2022-08-19T15:17:31;4.50;;;3.83;;
17171;SDS011;8701;50.150;8.756;2022-08-19T15:21:37;3.77;;;3.47;;
17171;SDS011;8701;50.150;8.756;2022-08-19T15:25:40;3.47;;;3.17;;
17171;SDS011;8701;50.150;8.756;2022-08-19T15:29:43;4.87;;;3.77;;
17171;SDS011;8701;50.150;8.756;2022-08-19T15:33:48;4.40;;;3.63;;
17171;SDS011;8701;50.150;8.756;2022-08-19T15:37:52;3.90;;;3.60;;
17171;SDS011;8701;50.150;8.756;2022-08-19T15:41:54;3.80;;;3.50;;
17171;SDS011;8701;50.150;8.756;2022-08-19T15:45:57;3.77;;;3.47;;
17171;SDS011;8701;50.150;8.756;2022-08-19T15:50:00;7.43;;;3.93;;
17171;SDS011;8701;50.150;8.756;2022-08-19T15:54:07;3.73;;;3.43;;
17171;SDS011;8701;50.150;8.756;2022-08-19T15:58:12;3.90;;;3.60;;
17171;SDS011;8701;50.150;8.756;2022-08-19T16:02:34;3.93;;;3.63;;
17171;SDS011;8701;50.150;8.756;2022-08-19T16:06:57;3.27;;;2.97;;
17171;SDS011;8701;50.150;8.756;2022-08-19T16:11:00;3.10;;;2.80;;
17171;SDS011;8701;50.150;8.756;2022-08-19T16:15:02;3.67;;;3.37;;
17171;SDS011;8701;50.150;8.756;2022-08-19T16:19:07;6.53;;;3.77;;
17171;SDS011;8701;50.150;8.756;2022-08-19T16:23:16;3.60;;;3.30;;
17171;SDS011;8701;50.150;8.756;2022-08-19T16:27:19;4.17;;;3.80;;
17171;SDS011;8701;50.150;8.756;2022-08-19T16:31:22;3.77;;;3.43;;
17171;SDS011;8701;50.150;8.756;2022-08-19T16:35:25;3.80;;;3.50;;
17171;SDS011;8701;50.150;8.756;2022-08-19T16:39:28;3.93;;;3.60;;
17171;SDS011;8701;50.150;8.756;2022-08-19T16:43:31;5.80;;;4.00;;
17171;SDS011;8701;50.150;8.756;2022-08-19T16:47:34;4.27;;;3.87;;
17171;SDS011;8701;50.150;8.756;2022-08-19T16:51:37;4.10;;;3.70;;
17171;SDS011;8701;50.150;8.756;2022-08-19T16:55:42;3.97;;;3.67;;
17171;SDS011;8701;50.150;8.756;2022-08-19T16:59:46;4.07;;;3.63;;
17171;SDS011;8701;50.150;8.756;2022-08-19T17:03:51;4.80;;;4.23;;
17171;SDS011;8701;50.150;8.756;2022-08-19T17:07:54;4.00;;;3.70;;
17171;SDS011;8701;50.150;8.756;2022-08-19T17:11:58;3.77;;;3.47;;
17171;SDS011;8701;50.150;8.756;2022-08-19T17:16:01;4.07;;;3.67;;
17171;SDS011;8701;50.150;8.756;2022-08-19T17:20:04;4.50;;;3.70;;
17171;SDS011;8701;50.150;8.756;2022-08-19T17:24:08;5.83;;;4.00;;
17171;SDS011;8701;50.150;8.756;2022-08-19T17:28:17;4.40;;;4.10;;
17171;SDS011;8701;50.150;8.756;2022-08-19T17:32:21;9.70;;;5.03;;
17171;SDS011;8701;50.150;8.756;2022-08-19T17:36:24;4.90;;;3.63;;
17171;SDS011;8701;50.150;8.756;2022-08-19T17:40:47;5.60;;;4.43;;
17171;SDS011;8701;50.150;8.756;2022-08-19T17:44:52;4.37;;;4.07;;
17171;SDS011;8701;50.150;8.756;2022-08-19T17:48:58;4.60;;;4.20;;
17171;SDS011;8701;50.150;8.756;2022-08-19T17:53:00;4.13;;;3.83;;
17171;SDS011;8701;50.150;8.756;2022-08-19T17:57:03;4.80;;;4.30;;
17171;SDS011;8701;50.150;8.756;2022-08-19T18:01:08;6.90;;;4.20;;
17171;SDS011;8701;50.150;8.756;2022-08-19T18:05:11;5.53;;;4.23;;
17171;SDS011;8701;50.150;8.756;2022-08-19T18:09:14;6.23;;;4.53;;
17171;SDS011;8701;50.150;8.756;2022-08-19T18:13:16;4.43;;;4.03;;
17171;SDS011;8701;50.150;8.756;2022-08-19T18:17:20;5.13;;;4.27;;
17171;SDS011;8701;50.150;8.756;2022-08-19T18:21:24;6.33;;;5.70;;
17171;SDS011;8701;50.150;8.756;2022-08-19T18:25:31;5.50;;;4.37;;
17171;SDS011;8701;50.150;8.756;2022-08-19T18:29:33;4.13;;;3.83;;
17171;SDS011;8701;50.150;8.756;2022-08-19T18:33:39;5.30;;;4.83;;
17171;SDS011;8701;50.150;8.756;2022-08-19T18:37:45;5.40;;;5.00;;
17171;SDS011;8701;50.150;8.756;2022-08-19T18:41:47;5.47;;;4.40;;
17171;SDS011;8701;50.150;8.756;2022-08-19T18:46:07;5.60;;;5.10;;
17171;SDS011;8701;50.150;8.756;2022-08-19T18:50:33;5.37;;;4.87;;
17171;SDS011;8701;50.150;8.756;2022-08-19T18:54:37;6.00;;;4.87;;
17171;SDS011;8701;50.150;8.756;2022-08-19T18:58:41;5.63;;;5.10;;
17171;SDS011;8701;50.150;8.756;2022-08-19T19:02:44;5.30;;;4.90;;
17171;SDS011;8701;50.150;8.756;2022-08-19T19:06:48;5.50;;;5.00;;
17171;SDS011;8701;50.150;8.756;2022-08-19T19:10:51;5.20;;;4.70;;
17171;SDS011;8701;50.150;8.756;2022-08-19T19:14:54;5.00;;;4.50;;
17171;SDS011;8701;50.150;8.756;2022-08-19T19:18:57;5.67;;;5.27;;
17171;SDS011;8701;50.150;8.756;2022-08-19T19:23:01;5.50;;;5.00;;
17171;SDS011;8701;50.150;8.756;2022-08-19T19:27:04;6.00;;;5.50;;
17171;SDS011;8701;50.150;8.756;2022-08-19T19:31:10;5.97;;;5.40;;
17171;SDS011;8701;50.150;8.756;2022-08-19T19:35:16;5.60;;;5.10;;
17171;SDS011;8701;50.150;8.756;2022-08-19T19:39:19;5.70;;;4.93;;
17171;SDS011;8701;50.150;8.756;2022-08-19T19:43:22;6.30;;;5.67;;
17171;SDS011;8701;50.150;8.756;2022-08-19T19:47:24;7.13;;;5.13;;
17171;SDS011;8701;50.150;8.756;2022-08-19T19:51:28;5.43;;;4.93;;
17171;SDS011;8701;50.150;8.756;2022-08-19T19:55:32;12.83;;;6.37;;
17171;SDS011;8701;50.150;8.756;2022-08-19T20:10:22;7.60;;;6.30;;
17171;SDS011;8701;50.150;8.756;2022-08-19T20:14:35;7.77;;;5.43;;
17171;SDS011;8701;50.150;8.756;2022-08-19T20:18:43;8.20;;;6.47;;
17171;SDS011;8701;50.150;8.756;2022-08-19T20:22:45;8.67;;;6.40;;
17171;SDS011;8701;50.150;8.756;2022-08-19T20:26:48;7.50;;;5.67;;
17171;SDS011;8701;50.150;8.756;2022-08-19T20:30:52;8.47;;;6.20;;
17171;SDS011;8701;50.150;8.756;2022-08-19T20:35:14;7.30;;;6.60;;
17171;SDS011;8701;50.150;8.756;2022-08-19T20:39:20;14.00;;;6.23;;
17171;SDS011;8701;50.150;8.756;2022-08-19T20:43:25;10.33;;;6.17;;
17171;SDS011;8701;50.150;8.756;2022-08-19T20:47:30;11.53;;;6.07;;
17171;SDS011;8701;50.150;8.756;2022-08-19T20:51:36;6.60;;;5.90;;
17171;SDS011;8701;50.150;8.756;2022-08-19T20:55:38;7.60;;;6.60;;
17171;SDS011;8701;50.150;8.756;2022-08-19T20:59:45;6.70;;;5.73;;
17171;SDS011;8701;50.150;8.756;2022-08-19T21:03:48;7.60;;;5.53;;
17171;SDS011;8701;50.150;8.756;2022-08-19T21:07:51;8.20;;;5.70;;
17171;SDS011;8701;50.150;8.756;2022-08-19T21:11:54;9.33;;;5.70;;
17171;SDS011;8701;50.150;8.756;2022-08-19T21:15:56;5.53;;;5.03;;
17171;SDS011;8701;50.150;8.756;2022-08-19T21:20:00;6.00;;;4.57;;
17171;SDS011;8701;50.150;8.756;2022-08-19T21:24:05;7.73;;;5.47;;
17171;SDS011;8701;50.150;8.756;2022-08-19T21:28:09;7.43;;;5.00;;
17171;SDS011;8701;50.150;8.756;2022-08-19T21:32:12;5.23;;;4.73;;
17171;SDS011;8701;50.150;8.756;2022-08-19T21:36:15;7.93;;;5.20;;
17171;SDS011;8701;50.150;8.756;2022-08-19T21:40:19;10.93;;;4.90;;
17171;SDS011;8701;50.150;8.756;2022-08-19T21:44:22;5.60;;;4.80;;
17171;SDS011;8701;50.150;8.756;2022-08-19T21:48:24;9.30;;;4.70;;
17171;SDS011;8701;50.150;8.756;2022-08-19T21:52:30;10.73;;;5.10;;
17171;SDS011;8701;50.150;8.756;2022-08-19T21:56:33;6.30;;;4.77;;
17171;SDS011;8701;50.150;8.756;2022-08-19T22:00:39;7.83;;;4.27;;
17171;SDS011;8701;50.150;8.756;2022-08-19T22:04:42;6.57;;;4.33;;
17171;SDS011;8701;50.150;8.756;2022-08-19T22:08:46;7.10;;;4.40;;
17171;SDS011;8701;50.150;8.756;2022-08-19T22:12:48;6.17;;;4.80;;
17171;SDS011;8701;50.150;8.756;2022-08-19T22:16:51;12.33;;;4.47;;
17171;SDS011;8701;50.150;8.756;2022-08-19T22:20:53;7.03;;;4.37;;
17171;SDS011;8701;50.150;8.756;2022-08-19T22:25:04;8.50;;;4.87;;
17171;SDS011;8701;50.150;8.756;2022-08-19T22:29:12;5.60;;;3.73;;
17171;SDS011;8701;50.150;8.756;2022-08-19T22:33:16;5.97;;;4.33;;
17171;SDS011;8701;50.150;8.756;2022-08-19T22:37:20;4.37;;;3.97;;
17171;SDS011;8701;50.150;8.756;2022-08-19T22:41:24;5.60;;;4.07;;
17171;SDS011;8701;50.150;8.756;2022-08-19T22:45:28;4.20;;;3.80;;
17171;SDS011;8701;50.150;8.756;2022-08-19T22:49:31;6.23;;;4.10;;
17171;SDS011;8701;50.150;8.756;2022-08-19T22:53:38;5.43;;;3.80;;
17171;SDS011;8701;50.150;8.756;2022-08-19T22:57:46;8.17;;;3.87;;
17171;SDS011;8701;50.150;8.756;2022-08-19T23:01:50;5.43;;;3.30;;
17171;SDS011;8701;50.150;8.756;2022-08-19T23:05:53;4.87;;;4.00;;
17171;SDS011;8701;50.150;8.756;2022-08-19T23:09:56;6.17;;;4.00;;
17171;SDS011;8701;50.150;8.756;2022-08-19T23:13:59;7.20;;;3.73;;
17171;SDS011;8701;50.150;8.756;2022-08-19T23:18:03;5.40;;;3.90;;
17171;SDS011;8701;50.150;8.756;2022-08-19T23:22:06;5.13;;;3.60;;
17171;SDS011;8701;50.150;8.756;2022-08-19T23:26:10;5.20;;;3.83;;
17171;SDS011;8701;50.150;8.756;2022-08-19T23:30:13;5.17;;;3.60;;
17171;SDS011;8701;50.150;8.756;2022-08-19T23:34:28;4.17;;;3.33;;
17171;SDS011;8701;50.150;8.756;2022-08-19T23:38:30;9.83;;;3.67;;
17171;SDS011;8701;50.150;8.756;2022-08-19T23:42:33;4.20;;;3.50;;
17171;SDS011;8701;50.150;8.756;2022-08-19T23:46:40;8.90;;;3.43;;
17171;SDS011;8701;50.150;8.756;2022-08-19T23:50:43;5.43;;;3.43;;
17171;SDS011;8701;50.150;8.756;2022-08-19T23:54:46;5.13;;;3.87;;
17171;SDS011;8701;50.150;8.756;2022-08-19T23:58:49;3.40;;;2.90;;
